createdAt,value
2023-02-28T00:00:22.177Z,26.62
2023-02-28T00:01:22.219Z,26.67
2023-02-28T00:02:22.275Z,26.66
2023-02-28T00:03:22.267Z,26.67
2023-02-28T00:04:22.294Z,26.69
2023-02-28T00:05:22.311Z,26.56
2023-02-28T00:06:22.360Z,26.69
2023-02-28T00:07:22.375Z,26.73
2023-02-28T00:08:21.396Z,26.77
2023-02-28T00:09:22.426Z,26.73
2023-02-28T00:10:22.466Z,26.78
2023-02-28T00:11:21.514Z,26.69
2023-02-28T00:12:22.549Z,26.63
2023-02-28T00:13:22.599Z,26.71
2023-02-28T00:14:22.612Z,26.76
2023-02-28T00:15:22.636Z,26.70
2023-02-28T00:16:22.784Z,26.74
2023-02-28T00:17:22.693Z,26.61
2023-02-28T00:18:22.706Z,26.64
2023-02-28T00:19:22.749Z,26.64
2023-02-28T00:20:22.770Z,26.67
2023-02-28T00:21:22.799Z,26.66
2023-02-28T00:22:22.840Z,26.68
2023-02-28T00:23:22.836Z,26.60
2023-02-28T00:24:22.883Z,26.54
2023-02-28T00:25:21.880Z,26.56
2023-02-28T00:26:22.923Z,26.71
2023-02-28T00:27:22.937Z,26.71
2023-02-28T00:28:21.952Z,26.60
2023-02-28T00:29:21.960Z,26.57
2023-02-28T00:30:21.967Z,26.57
2023-02-28T00:31:22.992Z,26.53
2023-02-28T00:32:23.168Z,26.59
2023-02-28T00:33:22.033Z,26.65
2023-02-28T00:34:23.090Z,26.64
2023-02-28T00:35:23.204Z,26.59
2023-02-28T00:36:23.171Z,26.63
2023-02-28T00:37:23.188Z,26.56
2023-02-28T00:38:23.218Z,26.51
2023-02-28T00:39:23.216Z,26.56
2023-02-28T00:40:23.238Z,26.55
2023-02-28T00:41:23.265Z,26.54
2023-02-28T00:42:23.438Z,26.58
2023-02-28T00:43:22.348Z,26.60
2023-02-28T00:44:23.366Z,26.53
2023-02-28T00:45:23.388Z,26.58
2023-02-28T00:46:23.457Z,26.49
2023-02-28T00:47:23.473Z,26.48
2023-02-28T00:48:23.482Z,26.49
2023-02-28T00:49:23.548Z,26.52
2023-02-28T00:50:23.605Z,26.61
2023-02-28T00:51:22.671Z,26.51
2023-02-28T00:52:23.707Z,26.54
2023-02-28T00:53:23.786Z,26.46
2023-02-28T00:54:23.864Z,26.49
2023-02-28T00:55:23.893Z,26.49
2023-02-28T00:56:23.944Z,26.47
2023-02-28T00:57:23.987Z,26.54
2023-02-28T00:58:24.015Z,26.53
2023-02-28T00:59:23.076Z,26.51
2023-02-28T01:00:24.103Z,26.46
2023-02-28T01:01:24.217Z,26.45
2023-02-28T01:02:24.188Z,26.40
2023-02-28T01:03:23.230Z,26.46
2023-02-28T01:04:24.317Z,26.48
2023-02-28T01:05:23.311Z,26.51
2023-02-28T01:06:24.371Z,26.44
2023-02-28T01:07:24.399Z,26.42
2023-02-28T01:08:24.444Z,26.42
2023-02-28T01:09:24.505Z,26.49
2023-02-28T01:10:23.589Z,26.55
2023-02-28T01:11:24.586Z,26.51
2023-02-28T01:12:23.608Z,26.42
2023-02-28T01:13:23.644Z,26.52
2023-02-28T01:14:24.651Z,26.46
2023-02-28T01:15:24.806Z,26.46
2023-02-28T01:16:23.730Z,26.55
2023-02-28T01:17:24.782Z,26.51
2023-02-28T01:18:24.797Z,26.44
2023-02-28T01:19:24.867Z,26.52
2023-02-28T01:20:24.918Z,26.51
2023-02-28T01:21:24.949Z,26.42
2023-02-28T01:22:25.009Z,26.39
2023-02-28T01:23:25.104Z,26.43
2023-02-28T01:24:25.099Z,26.41
2023-02-28T01:25:25.365Z,26.45
2023-02-28T01:26:25.230Z,26.37
2023-02-28T01:27:25.261Z,26.45
2023-02-28T01:28:25.320Z,26.54
2023-02-28T01:29:25.381Z,26.38
2023-02-28T01:30:25.447Z,26.36
2023-02-28T01:31:25.543Z,26.38
2023-02-28T01:32:25.588Z,26.34
2023-02-28T01:33:24.614Z,26.30
2023-02-28T01:34:26.701Z,26.31
2023-02-28T01:35:24.737Z,26.23
2023-02-28T01:36:25.791Z,26.22
2023-02-28T01:37:24.848Z,26.28
2023-02-28T01:38:25.917Z,26.28
2023-02-28T01:39:25.978Z,26.22
2023-02-28T01:40:26.020Z,26.29
2023-02-28T01:41:26.143Z,26.22
2023-02-28T01:42:26.159Z,26.18
2023-02-28T01:43:25.294Z,26.15
2023-02-28T01:44:25.223Z,26.16
2023-02-28T01:45:26.312Z,26.11
2023-02-28T01:46:26.407Z,26.18
2023-02-28T01:47:26.374Z,26.17
2023-02-28T01:48:26.418Z,26.16
2023-02-28T01:49:26.471Z,26.18
2023-02-28T01:50:26.514Z,26.14
2023-02-28T01:51:26.848Z,26.11
2023-02-28T01:52:26.615Z,26.09
2023-02-28T01:53:25.636Z,26.10
2023-02-28T01:54:25.686Z,26.10
2023-02-28T01:55:26.747Z,26.13
2023-02-28T01:56:26.783Z,26.08
2023-02-28T01:57:26.857Z,26.16
2023-02-28T01:58:26.926Z,26.14
2023-02-28T01:59:25.939Z,26.11
2023-02-28T02:00:25.992Z,26.12
2023-02-28T02:01:27.334Z,26.07
2023-02-28T02:02:27.167Z,26.08
2023-02-28T02:03:27.142Z,26.10
2023-02-28T02:04:26.199Z,26.06
2023-02-28T02:05:27.247Z,26.08
2023-02-28T02:06:27.347Z,26.11
2023-02-28T02:07:26.340Z,26.11
2023-02-28T02:08:27.394Z,26.11
2023-02-28T02:09:27.436Z,26.16
2023-02-28T02:10:27.483Z,26.12
2023-02-28T02:11:28.095Z,26.20
2023-02-28T02:12:27.590Z,26.09
2023-02-28T02:13:27.636Z,26.09
2023-02-28T02:14:27.710Z,26.06
2023-02-28T02:15:27.738Z,26.10
2023-02-28T02:16:27.779Z,26.10
2023-02-28T02:17:26.829Z,26.03
2023-02-28T02:18:27.876Z,26.07
2023-02-28T02:19:26.909Z,26.04
2023-02-28T02:20:27.964Z,26.05
2023-02-28T02:21:27.484Z,26.11
2023-02-28T02:22:27.071Z,26.03
2023-02-28T02:23:27.097Z,26.01
2023-02-28T02:24:28.155Z,26.05
2023-02-28T02:25:28.196Z,26.02
2023-02-28T02:26:28.245Z,26.06
2023-02-28T02:27:28.282Z,25.98
2023-02-28T02:28:28.321Z,26.08
2023-02-28T02:29:28.367Z,26.06
2023-02-28T02:30:28.442Z,26.03
2023-02-28T02:31:28.865Z,26.01
2023-02-28T02:32:28.537Z,26.02
2023-02-28T02:33:28.550Z,26.01
2023-02-28T02:34:28.592Z,26.04
2023-02-28T02:35:28.685Z,26.06
2023-02-28T02:36:27.681Z,25.97
2023-02-28T02:37:28.722Z,26.06
2023-02-28T02:38:28.773Z,26.01
2023-02-28T02:39:27.815Z,26.02
2023-02-28T02:40:28.860Z,26.04
2023-02-28T02:41:28.312Z,25.99
2023-02-28T02:42:27.944Z,26.02
2023-02-28T02:43:27.987Z,26.05
2023-02-28T02:44:29.024Z,26.01
2023-02-28T02:45:29.053Z,26.10
2023-02-28T02:46:28.139Z,26.03
2023-02-28T02:47:28.135Z,26.05
2023-02-28T02:48:29.198Z,26.02
2023-02-28T02:49:28.234Z,26.05
2023-02-28T02:50:29.273Z,25.98
2023-02-28T02:51:29.672Z,26.04
2023-02-28T02:52:29.353Z,26.03
2023-02-28T02:53:29.417Z,26.02
2023-02-28T02:54:29.452Z,26.00
2023-02-28T02:55:30.128Z,25.95
2023-02-28T02:56:28.553Z,25.99
2023-02-28T02:57:29.610Z,25.98
2023-02-28T02:58:29.653Z,25.97
2023-02-28T02:59:28.715Z,26.03
2023-02-28T03:00:29.737Z,26.01
2023-02-28T03:01:30.243Z,25.99
2023-02-28T03:02:29.868Z,25.98
2023-02-28T03:03:30.147Z,25.99
2023-02-28T03:04:28.936Z,25.94
2023-02-28T03:05:30.016Z,25.98
2023-02-28T03:06:30.029Z,25.94
2023-02-28T03:07:30.072Z,25.94
2023-02-28T03:08:30.104Z,25.95
2023-02-28T03:09:29.139Z,25.94
2023-02-28T03:10:30.191Z,25.99
2023-02-28T03:11:29.618Z,25.95
2023-02-28T03:12:30.271Z,25.91
2023-02-28T03:13:29.317Z,25.90
2023-02-28T03:14:30.367Z,25.94
2023-02-28T03:15:30.421Z,26.01
2023-02-28T03:16:30.514Z,25.96
2023-02-28T03:17:30.477Z,25.99
2023-02-28T03:18:30.566Z,25.97
2023-02-28T03:19:29.564Z,26.02
2023-02-28T03:20:30.636Z,25.95
2023-02-28T03:21:31.032Z,26.04
2023-02-28T03:22:30.730Z,26.00
2023-02-28T03:23:30.765Z,25.99
2023-02-28T03:24:30.788Z,25.98
2023-02-28T03:25:30.831Z,26.03
2023-02-28T03:26:30.879Z,26.08
2023-02-28T03:27:29.924Z,26.04
2023-02-28T03:28:29.960Z,26.03
2023-02-28T03:29:31.012Z,26.06
2023-02-28T03:30:31.049Z,26.13
2023-02-28T03:31:31.487Z,26.02
2023-02-28T03:32:31.166Z,26.01
2023-02-28T03:33:31.199Z,26.03
2023-02-28T03:34:31.270Z,25.98
2023-02-28T03:35:30.318Z,25.99
2023-02-28T03:36:31.348Z,25.99
2023-02-28T03:37:30.402Z,26.00
2023-02-28T03:38:31.449Z,25.99
2023-02-28T03:39:31.500Z,25.99
2023-02-28T03:40:30.526Z,25.99
2023-02-28T03:41:31.947Z,25.99
2023-02-28T03:42:31.635Z,25.98
2023-02-28T03:43:31.681Z,26.07
2023-02-28T03:44:31.725Z,26.10
2023-02-28T03:45:30.915Z,26.08
2023-02-28T03:46:31.811Z,26.06
2023-02-28T03:47:31.876Z,25.97
2023-02-28T03:48:30.928Z,26.06
2023-02-28T03:49:31.975Z,26.04
2023-02-28T03:50:32.050Z,26.08
2023-02-28T03:51:32.089Z,26.04
2023-02-28T03:52:32.147Z,26.12
2023-02-28T03:53:32.184Z,26.03
2023-02-28T03:54:31.236Z,26.01
2023-02-28T03:55:31.269Z,26.01
2023-02-28T03:56:31.326Z,26.01
2023-02-28T03:57:32.385Z,26.01
2023-02-28T03:58:32.430Z,26.06
2023-02-28T03:59:32.484Z,26.04
2023-02-28T04:00:32.516Z,26.07
2023-02-28T04:01:32.883Z,26.07
2023-02-28T04:02:32.611Z,26.07
2023-02-28T04:03:32.655Z,26.06
2023-02-28T04:04:32.790Z,26.03
2023-02-28T04:05:32.754Z,25.96
2023-02-28T04:06:32.818Z,26.04
2023-02-28T04:07:32.892Z,26.06
2023-02-28T04:08:32.887Z,25.96
2023-02-28T04:09:32.951Z,25.98
2023-02-28T04:10:32.986Z,26.00
2023-02-28T04:11:33.054Z,26.04
2023-02-28T04:12:33.165Z,26.06
2023-02-28T04:13:33.136Z,26.07
2023-02-28T04:14:32.198Z,26.03
2023-02-28T04:15:33.307Z,26.06
2023-02-28T04:16:35.629Z,26.01
2023-02-28T04:17:33.301Z,26.04
2023-02-28T04:18:32.281Z,26.00
2023-02-28T04:19:33.282Z,26.06
2023-02-28T04:20:33.268Z,26.03
2023-02-28T04:21:33.733Z,26.05
2023-02-28T04:22:32.272Z,26.07
2023-02-28T04:23:33.254Z,26.00
2023-02-28T04:24:33.234Z,26.00
2023-02-28T04:25:33.223Z,26.00
2023-02-28T04:26:32.226Z,26.00
2023-02-28T04:27:33.218Z,26.04
2023-02-28T04:28:32.210Z,26.09
2023-02-28T04:29:32.200Z,26.04
2023-02-28T04:30:32.197Z,25.97
2023-02-28T04:31:33.493Z,25.96
2023-02-28T04:32:33.189Z,25.98
2023-02-28T04:33:33.169Z,26.02
2023-02-28T04:34:33.186Z,26.02
2023-02-28T04:35:33.235Z,26.02
2023-02-28T04:36:33.145Z,26.05
2023-02-28T04:37:33.162Z,26.08
2023-02-28T04:38:32.254Z,26.04
2023-02-28T04:39:33.271Z,26.08
2023-02-28T04:40:33.320Z,26.08
2023-02-28T04:41:33.913Z,26.09
2023-02-28T04:42:33.449Z,26.05
2023-02-28T04:43:33.501Z,26.07
2023-02-28T04:44:33.580Z,26.01
2023-02-28T04:45:33.768Z,26.02
2023-02-28T04:46:33.675Z,26.03
2023-02-28T04:47:32.733Z,26.09
2023-02-28T04:48:33.799Z,26.09
2023-02-28T04:49:33.867Z,26.08
2023-02-28T04:50:33.921Z,26.11
2023-02-28T04:51:33.980Z,26.11
2023-02-28T04:52:34.035Z,26.09
2023-02-28T04:53:34.139Z,26.07
2023-02-28T04:54:34.175Z,26.10
2023-02-28T04:55:34.232Z,26.07
2023-02-28T04:56:34.273Z,26.07
2023-02-28T04:57:34.358Z,26.09
2023-02-28T04:58:34.434Z,26.12
2023-02-28T04:59:34.470Z,26.17
2023-02-28T05:00:34.530Z,26.17
2023-02-28T05:01:34.602Z,26.14
2023-02-28T05:02:33.724Z,26.17
2023-02-28T05:03:34.706Z,26.07
2023-02-28T05:04:34.819Z,26.13
2023-02-28T05:05:34.848Z,26.16
2023-02-28T05:06:34.986Z,26.15
2023-02-28T05:07:34.964Z,26.14
2023-02-28T05:08:34.018Z,26.17
2023-02-28T05:09:35.107Z,26.19
2023-02-28T05:10:35.161Z,26.16
2023-02-28T05:11:35.259Z,26.13
2023-02-28T05:12:34.264Z,26.11
2023-02-28T05:13:35.332Z,26.08
2023-02-28T05:14:35.407Z,26.05
2023-02-28T05:15:35.869Z,26.05
2023-02-28T05:16:35.696Z,26.05
2023-02-28T05:17:34.572Z,26.07
2023-02-28T05:18:35.723Z,26.14
2023-02-28T05:19:35.685Z,26.15
2023-02-28T05:20:35.752Z,26.09
2023-02-28T05:21:35.819Z,26.06
2023-02-28T05:22:35.845Z,26.04
2023-02-28T05:23:34.919Z,26.01
2023-02-28T05:24:35.979Z,26.00
2023-02-28T05:25:36.068Z,26.04
2023-02-28T05:26:36.119Z,26.06
2023-02-28T05:27:35.176Z,26.05
2023-02-28T05:28:36.230Z,26.07
2023-02-28T05:29:36.294Z,26.04
2023-02-28T05:30:36.363Z,26.03
2023-02-28T05:31:35.560Z,26.01
2023-02-28T05:32:35.558Z,26.03
2023-02-28T05:33:36.526Z,26.03
2023-02-28T05:34:36.553Z,25.96
2023-02-28T05:35:35.659Z,25.98
2023-02-28T05:36:35.641Z,25.97
2023-02-28T05:37:36.687Z,26.05
2023-02-28T05:38:38.534Z,26.01
2023-02-28T05:39:36.759Z,26.06
2023-02-28T05:40:36.748Z,26.02
2023-02-28T05:41:36.770Z,26.04
2023-02-28T05:42:35.732Z,26.02
2023-02-28T05:43:36.720Z,26.04
2023-02-28T05:44:36.701Z,26.07
2023-02-28T05:45:36.746Z,26.00
2023-02-28T05:46:36.736Z,25.98
2023-02-28T05:47:36.684Z,25.99
2023-02-28T05:48:36.725Z,26.02
2023-02-28T05:49:36.678Z,26.02
2023-02-28T05:50:36.671Z,26.02
2023-02-28T05:51:35.658Z,26.01
2023-02-28T05:52:35.701Z,26.04
2023-02-28T05:53:36.638Z,26.06
2023-02-28T05:54:36.650Z,26.01
2023-02-28T05:55:36.631Z,25.99
2023-02-28T05:56:35.628Z,25.96
2023-02-28T05:57:36.648Z,25.96
2023-02-28T05:58:36.604Z,25.94
2023-02-28T05:59:36.614Z,25.98
2023-02-28T06:00:36.602Z,25.94
2023-02-28T06:01:36.630Z,26.01
2023-02-28T06:02:36.671Z,26.01
2023-02-28T06:03:36.784Z,25.98
2023-02-28T06:04:36.634Z,25.94
2023-02-28T06:05:36.564Z,26.01
2023-02-28T06:06:37.174Z,25.99
2023-02-28T06:07:35.549Z,26.00
2023-02-28T06:08:36.551Z,25.99
2023-02-28T06:09:36.544Z,26.00
2023-02-28T06:10:36.550Z,25.99
2023-02-28T06:11:36.539Z,25.92
2023-02-28T06:12:35.525Z,25.98
2023-02-28T06:13:36.537Z,25.96
2023-02-28T06:14:36.508Z,25.94
2023-02-28T06:15:36.490Z,25.95
2023-02-28T06:16:36.520Z,25.94
2023-02-28T06:17:36.491Z,25.95
2023-02-28T06:18:36.492Z,25.95
2023-02-28T06:19:35.492Z,25.96
2023-02-28T06:20:35.471Z,25.97
2023-02-28T06:21:36.441Z,25.97
2023-02-28T06:22:35.443Z,25.97
2023-02-28T06:23:36.433Z,25.96
2023-02-28T06:24:36.433Z,26.02
2023-02-28T06:25:35.420Z,25.97
2023-02-28T06:26:36.415Z,26.00
2023-02-28T06:27:36.409Z,25.95
2023-02-28T06:28:36.396Z,25.96
2023-02-28T06:29:36.424Z,25.94
2023-02-28T06:30:36.378Z,25.96
2023-02-28T06:31:36.415Z,26.00
2023-02-28T06:32:36.374Z,25.94
2023-02-28T06:33:36.377Z,25.94
2023-02-28T06:34:35.373Z,25.98
2023-02-28T06:35:36.377Z,26.00
2023-02-28T06:36:36.425Z,26.00
2023-02-28T06:37:35.483Z,25.99
2023-02-28T06:38:35.527Z,25.98
2023-02-28T06:39:36.699Z,26.00
2023-02-28T06:40:35.646Z,26.01
2023-02-28T06:41:51.962Z,26.01
2023-02-28T06:42:36.718Z,26.10
2023-02-28T06:43:36.733Z,26.14
2023-02-28T06:44:36.705Z,26.20
2023-02-28T06:45:36.716Z,26.17
2023-02-28T06:46:36.744Z,26.21
2023-02-28T06:47:36.691Z,26.25
2023-02-28T06:48:36.698Z,26.31
2023-02-28T06:49:36.734Z,25.17
2023-02-28T06:50:36.682Z,23.78
2023-02-28T06:51:35.659Z,24.45
2023-02-28T06:52:36.637Z,25.31
2023-02-28T06:53:36.648Z,25.83
2023-02-28T06:54:36.643Z,26.10
2023-02-28T06:55:36.635Z,26.43
2023-02-28T06:56:36.638Z,26.57
2023-02-28T06:57:35.637Z,26.55
2023-02-28T06:58:35.608Z,26.65
2023-02-28T06:59:36.603Z,26.52
2023-02-28T07:00:35.616Z,26.84
2023-02-28T07:01:36.657Z,26.97
2023-02-28T07:02:36.590Z,27.00
2023-02-28T07:03:35.572Z,26.87
2023-02-28T07:04:35.622Z,26.79
2023-02-28T07:05:35.574Z,26.76
2023-02-28T07:06:36.544Z,26.92
2023-02-28T07:07:36.566Z,26.84
2023-02-28T07:08:35.541Z,26.82
2023-02-28T07:09:36.536Z,26.79
2023-02-28T07:10:36.526Z,26.77
2023-02-28T07:11:36.533Z,26.75
2023-02-28T07:12:36.519Z,26.72
2023-02-28T07:13:35.517Z,26.74
2023-02-28T07:14:36.503Z,26.70
2023-02-28T07:15:39.749Z,26.64
2023-02-28T07:16:36.498Z,26.51
2023-02-28T07:17:36.489Z,26.35
2023-02-28T07:18:36.470Z,26.27
2023-02-28T07:19:36.449Z,26.19
2023-02-28T07:20:35.469Z,26.12
2023-02-28T07:21:36.494Z,26.09
2023-02-28T07:22:36.530Z,26.02
2023-02-28T07:23:36.650Z,25.96
2023-02-28T07:24:36.744Z,26.00
2023-02-28T07:25:36.637Z,25.95
2023-02-28T07:26:35.699Z,25.89
2023-02-28T07:27:36.720Z,25.80
2023-02-28T07:28:35.735Z,25.80
2023-02-28T07:29:35.811Z,25.80
2023-02-28T07:30:36.794Z,25.68
2023-02-28T07:31:36.881Z,25.58
2023-02-28T07:32:35.830Z,25.52
2023-02-28T07:33:36.856Z,25.42
2023-02-28T07:34:35.841Z,25.28
2023-02-28T07:35:36.846Z,25.24
2023-02-28T07:36:35.819Z,25.08
2023-02-28T07:37:36.820Z,25.00
2023-02-28T07:38:36.866Z,24.81
2023-02-28T07:39:36.069Z,24.76
2023-02-28T07:40:36.930Z,24.70
2023-02-28T07:41:36.967Z,24.65
2023-02-28T07:42:37.014Z,24.57
2023-02-28T07:43:37.030Z,24.48
2023-02-28T07:44:37.149Z,24.55
2023-02-28T07:45:37.100Z,24.48
2023-02-28T07:46:37.003Z,24.31
2023-02-28T07:47:37.206Z,24.24
2023-02-28T07:48:37.219Z,24.12
2023-02-28T07:49:36.257Z,24.02
2023-02-28T07:50:37.273Z,24.07
2023-02-28T07:51:37.307Z,23.95
2023-02-28T07:52:37.318Z,23.93
2023-02-28T07:53:36.319Z,24.17
2023-02-28T07:54:37.350Z,24.12
2023-02-28T07:55:37.372Z,24.19
2023-02-28T07:56:37.458Z,24.16
2023-02-28T07:57:37.481Z,24.27
2023-02-28T07:58:37.534Z,24.42
2023-02-28T07:59:37.591Z,24.41
2023-02-28T08:00:37.677Z,24.53
2023-02-28T08:01:37.723Z,24.55
2023-02-28T08:02:36.705Z,24.48
2023-02-28T08:03:37.769Z,24.65
2023-02-28T08:04:37.877Z,24.66
2023-02-28T08:05:37.828Z,24.65
2023-02-28T08:06:37.870Z,24.62
2023-02-28T08:07:37.913Z,24.69
2023-02-28T08:08:37.902Z,24.58
2023-02-28T08:09:37.998Z,24.62
2023-02-28T08:10:37.964Z,24.63
2023-02-28T08:11:37.972Z,24.51
2023-02-28T08:12:37.978Z,24.54
2023-02-28T08:13:37.985Z,24.43
2023-02-28T08:14:38.014Z,24.46
2023-02-28T08:15:37.024Z,24.45
2023-02-28T08:16:38.097Z,24.33
2023-02-28T08:17:37.032Z,24.32
2023-02-28T08:18:38.015Z,24.34
2023-02-28T08:19:38.027Z,24.22
2023-02-28T08:20:38.110Z,24.19
2023-02-28T08:21:38.058Z,24.16
2023-02-28T08:22:38.085Z,24.14
2023-02-28T08:23:38.151Z,24.07
2023-02-28T08:24:38.233Z,24.19
2023-02-28T08:25:38.215Z,24.09
2023-02-28T08:26:38.176Z,24.01
2023-02-28T08:27:38.224Z,23.95
2023-02-28T08:28:38.358Z,23.86
2023-02-28T08:29:38.355Z,23.87
2023-02-28T08:30:38.473Z,23.79
2023-02-28T08:31:38.494Z,23.79
2023-02-28T08:32:38.680Z,23.68
2023-02-28T08:33:37.574Z,23.61
2023-02-28T08:34:38.650Z,23.47
2023-02-28T08:35:37.746Z,23.32
2023-02-28T08:36:38.813Z,23.32
2023-02-28T08:37:38.769Z,23.24
2023-02-28T08:38:38.816Z,23.10
2023-02-28T08:39:38.865Z,23.02
2023-02-28T08:40:38.998Z,23.02
2023-02-28T08:41:38.927Z,22.97
2023-02-28T08:42:37.975Z,22.93
2023-02-28T08:43:39.033Z,22.84
2023-02-28T08:44:39.045Z,22.90
2023-02-28T08:45:39.440Z,22.84
2023-02-28T08:46:39.131Z,22.80
2023-02-28T08:47:38.184Z,22.92
2023-02-28T08:48:38.240Z,22.96
2023-02-28T08:49:39.219Z,23.17
2023-02-28T08:50:39.770Z,23.03
2023-02-28T08:51:39.299Z,22.95
2023-02-28T08:52:39.432Z,22.87
2023-02-28T08:53:39.413Z,23.12
2023-02-28T08:54:39.414Z,23.23
2023-02-28T08:55:38.439Z,23.26
2023-02-28T08:56:39.415Z,23.13
2023-02-28T08:57:39.545Z,23.12
2023-02-28T08:58:38.420Z,22.77
2023-02-28T08:59:39.426Z,22.70
2023-02-28T09:00:39.515Z,22.96
2023-02-28T09:01:39.424Z,23.40
2023-02-28T09:02:39.457Z,23.43
2023-02-28T09:03:39.616Z,23.42
2023-02-28T09:04:38.426Z,23.37
2023-02-28T09:05:38.468Z,23.48
2023-02-28T09:06:38.551Z,23.64
2023-02-28T09:07:39.579Z,23.64
2023-02-28T09:08:39.647Z,23.52
2023-02-28T09:09:39.666Z,23.22
2023-02-28T09:10:39.684Z,23.70
2023-02-28T09:11:39.702Z,23.89
2023-02-28T09:12:39.701Z,23.59
2023-02-28T09:13:39.711Z,23.83
2023-02-28T09:14:39.725Z,23.79
2023-02-28T09:15:39.763Z,23.68
2023-02-28T09:16:39.759Z,23.67
2023-02-28T09:17:39.741Z,23.58
2023-02-28T09:18:39.751Z,23.63
2023-02-28T09:19:39.736Z,24.06
2023-02-28T09:20:39.761Z,24.17
2023-02-28T09:21:39.799Z,23.89
2023-02-28T09:22:39.779Z,23.29
2023-02-28T09:23:39.809Z,23.31
2023-02-28T09:25:38.886Z,22.81
2023-02-28T09:26:43.151Z,23.10
2023-02-28T09:27:41.834Z,22.86
2023-02-28T09:28:39.891Z,22.65
2023-02-28T09:29:38.881Z,23.20
2023-02-28T09:30:39.964Z,23.08
2023-02-28T09:31:39.879Z,22.73
2023-02-28T09:32:38.847Z,23.15
2023-02-28T09:33:39.852Z,23.22
2023-02-28T09:34:39.995Z,22.69
2023-02-28T09:35:39.850Z,22.89
2023-02-28T09:36:45.315Z,22.67
2023-02-28T09:37:39.830Z,22.77
2023-02-28T09:38:39.810Z,22.52
2023-02-28T09:39:39.814Z,22.61
2023-02-28T09:40:39.822Z,22.74
2023-02-28T09:41:39.812Z,22.73
2023-02-28T09:42:39.807Z,22.96
2023-02-28T09:43:39.812Z,22.99
2023-02-28T09:44:39.830Z,22.93
2023-02-28T09:45:39.790Z,23.27
2023-02-28T09:46:39.810Z,23.28
2023-02-28T09:47:38.751Z,23.15
2023-02-28T09:48:41.035Z,22.91
2023-02-28T09:49:39.869Z,22.29
2023-02-28T09:50:39.885Z,22.64
2023-02-28T09:51:39.890Z,22.38
2023-02-28T09:52:39.920Z,22.25
2023-02-28T09:53:40.151Z,22.61
2023-02-28T09:54:39.950Z,22.55
2023-02-28T09:55:46.669Z,22.35
2023-02-28T09:56:39.958Z,22.26
2023-02-28T09:57:38.897Z,22.41
2023-02-28T09:58:39.910Z,22.51
2023-02-28T09:59:39.938Z,22.37
2023-02-28T10:00:39.894Z,22.32
2023-02-28T10:01:38.909Z,21.98
2023-02-28T10:02:39.880Z,21.84
2023-02-28T10:03:39.888Z,21.67
2023-02-28T10:04:38.934Z,21.55
2023-02-28T10:05:39.855Z,21.59
2023-02-28T10:06:39.872Z,21.40
2023-02-28T10:07:39.830Z,21.16
2023-02-28T10:08:39.834Z,21.21
2023-02-28T10:09:39.822Z,21.04
2023-02-28T10:10:39.817Z,21.03
2023-02-28T10:11:38.800Z,20.95
2023-02-28T10:12:39.817Z,20.92
2023-02-28T10:13:39.801Z,20.82
2023-02-28T10:14:39.792Z,20.68
2023-02-28T10:15:39.844Z,20.66
2023-02-28T10:16:39.774Z,20.56
2023-02-28T10:17:49.320Z,20.47
2023-02-28T10:18:39.771Z,20.51
2023-02-28T10:19:39.739Z,20.35
2023-02-28T10:20:39.800Z,20.35
2023-02-28T10:21:39.753Z,20.29
2023-02-28T10:22:39.726Z,20.26
2023-02-28T10:23:39.719Z,20.13
2023-02-28T10:24:39.712Z,20.22
2023-02-28T10:25:39.722Z,20.22
2023-02-28T10:26:39.728Z,20.26
2023-02-28T10:27:39.689Z,20.23
2023-02-28T10:28:39.697Z,20.19
2023-02-28T10:29:39.661Z,20.32
2023-02-28T10:30:39.679Z,20.37
2023-02-28T10:31:39.669Z,20.39
2023-02-28T10:32:39.708Z,20.44
2023-02-28T10:33:39.641Z,20.38
2023-02-28T10:34:39.645Z,20.35
2023-02-28T10:35:39.643Z,20.42
2023-02-28T10:36:38.622Z,20.48
2023-02-28T10:37:38.604Z,20.46
2023-02-28T10:38:38.612Z,20.44
2023-02-28T10:39:39.602Z,20.48
2023-02-28T10:40:39.639Z,20.50
2023-02-28T10:41:39.645Z,20.51
2023-02-28T10:42:39.654Z,20.50
2023-02-28T10:43:39.676Z,20.49
2023-02-28T10:44:39.725Z,20.49
2023-02-28T10:45:39.776Z,20.55
2023-02-28T10:46:39.754Z,20.61
2023-02-28T10:47:39.748Z,20.68
2023-02-28T10:48:38.783Z,21.10
2023-02-28T10:49:39.839Z,21.42
2023-02-28T10:50:40.313Z,21.70
2023-02-28T10:51:39.903Z,22.02
2023-02-28T10:52:39.911Z,22.04
2023-02-28T10:53:57.534Z,22.00
2023-02-28T10:54:39.903Z,21.97
2023-02-28T10:55:39.890Z,22.08
2023-02-28T10:56:39.892Z,22.10
2023-02-28T10:57:39.908Z,22.16
2023-02-28T10:58:39.868Z,22.22
2023-02-28T10:59:39.865Z,22.25
2023-02-28T11:00:38.872Z,22.33
2023-02-28T11:01:39.934Z,22.36
2023-02-28T11:02:39.845Z,22.39
2023-02-28T11:03:38.827Z,22.44
2023-02-28T11:04:39.939Z,22.53
2023-02-28T11:05:39.833Z,22.60
2023-02-28T11:06:39.819Z,22.64
2023-02-28T11:07:50.500Z,22.65
2023-02-28T11:08:39.796Z,22.71
2023-02-28T11:09:39.900Z,22.83
2023-02-28T11:10:38.785Z,22.89
2023-02-28T11:11:39.782Z,22.91
2023-02-28T11:12:46.909Z,22.99
2023-02-28T11:13:39.755Z,23.02
2023-02-28T11:14:38.772Z,23.11
2023-02-28T11:15:39.758Z,23.30
2023-02-28T11:16:39.761Z,23.25
2023-02-28T11:17:38.726Z,23.38
2023-02-28T11:18:39.732Z,23.54
2023-02-28T11:19:39.732Z,23.53
2023-02-28T11:20:39.691Z,23.72
2023-02-28T11:21:39.685Z,23.68
2023-02-28T11:22:39.677Z,23.70
2023-02-28T11:23:38.690Z,23.77
2023-02-28T11:24:39.711Z,23.88
2023-02-28T11:25:38.668Z,23.98
2023-02-28T11:26:38.665Z,24.07
2023-02-28T11:27:39.663Z,24.31
2023-02-28T11:29:39.629Z,24.38
2023-02-28T11:30:39.656Z,24.36
2023-02-28T11:31:39.756Z,24.39
2023-02-28T11:32:39.679Z,24.47
2023-02-28T11:33:39.622Z,24.50
2023-02-28T11:34:39.619Z,24.50
2023-02-28T11:35:39.668Z,24.61
2023-02-28T11:36:39.580Z,24.62
2023-02-28T11:37:39.576Z,24.71
2023-02-28T11:38:38.579Z,24.86
2023-02-28T11:39:39.569Z,24.93
2023-02-28T11:40:39.606Z,25.04
2023-02-28T11:41:41.190Z,25.14
2023-02-28T11:42:39.556Z,25.51
2023-02-28T11:43:38.556Z,25.74
2023-02-28T11:44:38.503Z,25.89
2023-02-28T11:45:39.496Z,25.89
2023-02-28T11:46:38.864Z,25.80
2023-02-28T11:47:38.489Z,25.76
2023-02-28T11:48:38.512Z,25.78
2023-02-28T11:49:39.495Z,25.79
2023-02-28T11:50:39.496Z,25.83
2023-02-28T11:51:39.454Z,25.79
2023-02-28T11:52:38.454Z,25.78
2023-02-28T11:53:38.445Z,25.76
2023-02-28T11:54:38.444Z,25.77
2023-02-28T11:55:39.458Z,25.79
2023-02-28T11:56:38.450Z,25.77
2023-02-28T11:57:39.414Z,25.74
2023-02-28T11:58:39.397Z,25.74
2023-02-28T11:59:38.387Z,25.74
2023-02-28T12:00:38.378Z,25.75
2023-02-28T12:01:39.390Z,25.71
2023-02-28T12:02:39.465Z,25.68
2023-02-28T12:03:39.370Z,25.67
2023-02-28T12:04:39.380Z,25.67
2023-02-28T12:06:38.347Z,25.66
2023-02-28T12:07:39.346Z,25.63
2023-02-28T12:08:39.330Z,25.64
2023-02-28T12:09:39.319Z,25.66
2023-02-28T12:11:39.309Z,25.66
2023-02-28T12:12:38.352Z,25.65
2023-02-28T12:13:38.296Z,25.63
2023-02-28T12:14:39.299Z,25.63
2023-02-28T12:15:38.268Z,25.64
2023-02-28T12:16:39.333Z,25.63
2023-02-28T12:17:38.270Z,25.63
2023-02-28T12:18:38.249Z,25.63
2023-02-28T12:19:39.250Z,25.61
2023-02-28T12:20:38.292Z,25.63
2023-02-28T12:21:39.272Z,25.62
2023-02-28T12:22:39.228Z,25.62
2023-02-28T12:23:38.232Z,25.61
2023-02-28T12:24:39.223Z,25.60
2023-02-28T12:25:38.224Z,25.63
2023-02-28T12:26:38.197Z,25.61
2023-02-28T12:27:39.200Z,25.61
2023-02-28T12:28:38.192Z,25.63
2023-02-28T12:29:39.190Z,25.61
2023-02-28T12:30:39.162Z,25.63
2023-02-28T12:31:39.204Z,25.64
2023-02-28T12:32:39.326Z,25.62
2023-02-28T12:33:39.162Z,25.64
2023-02-28T12:34:39.210Z,25.64
2023-02-28T12:35:39.262Z,25.63
2023-02-28T12:36:39.272Z,25.66
2023-02-28T12:37:39.344Z,25.66
2023-02-28T12:38:39.257Z,25.67
2023-02-28T12:39:49.882Z,25.67
2023-02-28T12:40:39.242Z,25.71
2023-02-28T12:41:39.235Z,25.73
2023-02-28T12:42:39.238Z,25.72
2023-02-28T12:43:39.220Z,25.73
2023-02-28T12:44:38.231Z,25.71
2023-02-28T12:45:39.386Z,25.74
2023-02-28T12:46:39.315Z,25.76
2023-02-28T12:47:39.209Z,25.76
2023-02-28T12:48:39.219Z,25.76
2023-02-28T12:49:39.193Z,25.78
2023-02-28T12:50:39.169Z,25.78
2023-02-28T12:51:39.173Z,25.81
2023-02-28T12:52:39.190Z,25.80
2023-02-28T12:53:39.159Z,25.86
2023-02-28T12:54:39.153Z,25.85
2023-02-28T12:55:39.156Z,25.84
2023-02-28T12:56:39.142Z,25.86